ADDS METAR Data INFO
IDs: Format: Raw Decoded Include TAF

Data at: 0401 UTC 19 Jul 2018

KUNO 190353Z AUTO 00000KT 10SM CLR 23/22 A3000 RMK AO2 SLP145 T02280217
KUNO 190253Z AUTO 06003KT 10SM SCT018 22/22 A3000 RMK AO2 RAE06 SLP145 P0001 60017 T02220217 56000
KUNO 190245Z AUTO 05004KT 10SM BKN018 22/22 A3000 RMK AO2 RAE06 P0001 T02220217
KUNO 190153Z AUTO 15007KT 9SM -RA FEW050 FEW075 BKN100 23/21 A2998 RMK AO2 SLP138 P0011 T02280211
KUNO 190106Z AUTO 14005KT 9SM -RA SCT100 BKN120 23/21 A2999 RMK AO2 LTG DSNT N AND W P0002 T02280211
KUNO 190053Z AUTO 13006KT 10SM VCTS -RA FEW060 FEW080 SCT110 23/21 A3000 RMK AO2 LTG DSNT N RAB15 TSB2358E21 SLP146 P0005 T02280211
KUNO 190051Z AUTO 13006KT 10SM VCTS -RA FEW060 FEW080 SCT120 23/21 A3000 RMK AO2 LTG DSNT N AND NW RAB15 TSB2358E21 P0005
KUNO 190038Z AUTO 13007KT 4SM RA BR SCT020 BKN060 OVC120 23/22 A3000 RMK AO2 LTG DSNT ALQDS RAB15 TSB2358E21 P0005 T02280217
KUNO 190027Z AUTO 12008KT 6SM -RA BR BKN020 BKN046 OVC100 23/22 A2999 RMK AO2 LTG DSNT ALQDS RAB15 TSB2358E21 P0001 T02330217
KUNO 190011Z AUTO 12008KT 10SM TS SCT012 BKN020 OVC027 24/22 A3000 RMK AO2 LTG DSNT W TSB2358 T02390222
KUNO 190002Z AUTO 12007KT 10SM TS BKN013 BKN022 OVC070 24/22 A3000 RMK AO2 LTG DSNT NW TSB2358 T02440222
KUNO 182353Z AUTO 10007KT 10SM VCTS FEW013 BKN019 OVC075 24/22 A2999 RMK AO2 LTG DSNT W AND NW SLP142 T02440222 10289 20239 55002
KUNO 182346Z AUTO 11003KT 10SM VCTS FEW018 BKN050 OVC070 24/22 A2998 RMK AO2 LTG DSNT E AND W AND NW T02440222
KUNO 182253Z AUTO 16009KT 10SM FEW024 SCT029 BKN100 28/22 A2998 RMK AO2 LTG DSNT SE AND S SLP136 T02830222
KUNO 182204Z AUTO 13005KT 10SM SCT024 BKN075 OVC100 28/23 A2998 RMK AO2 LTG DSNT SW T02830228
KUNO 182153Z AUTO 11006KT 10SM BKN025 BKN070 BKN110 28/23 A2999 RMK AO2 LTG DSNT S SLP139 T02780228
KUNO 182115Z AUTO 12008KT 10SM FEW023 SCT029 BKN055 28/22 A2999 RMK AO2 LTG DSNT SW T02780222
KUNO 182053Z AUTO 10008KT 10SM BKN023 BKN029 BKN110 28/23 A3000 RMK AO2 SLP143 T02830228 56019
KUNO 181953Z AUTO 13006KT 10SM FEW018 28/23 A3001 RMK AO2 SLP145 T02830228
KUNO 181853Z AUTO 11006KT 10SM FEW016 BKN049 27/22 A3003 RMK AO2 SLP155 T02670222
KUNO 181753Z AUTO 10007KT 10SM BKN044 OVC055 25/22 A3006 RMK AO2 SLP163 60007 T02500217 10250 20228 58006
KUNO 181723Z AUTO 12006KT 10SM SCT009 OVC044 25/22 A3006 RMK AO2 LTG DSNT SE T02500222
KUNO 181653Z AUTO 13005KT 10SM BKN008 OVC036 24/22 A3007 RMK AO2 CIG 007V011 SLP168 T02440217
KUNO 181641Z AUTO 10004KT 10SM BKN008 BKN036 24/22 A3007 RMK AO2 CIG 007V011 T02440222
KUNO 181632Z AUTO 08005KT 10SM SCT008 BKN036 OVC100 24/22 A3007 RMK AO2 LTG DSNT SE T02390222
KUNO 181611Z AUTO 07007KT 10SM FEW008 SCT015 BKN027 24/22 A3007 RMK AO2 LTG DSNT N AND SE T02390222
KUNO 181603Z AUTO 10006KT 10SM SCT015 BKN027 BKN095 24/22 A3007 RMK AO2 LTG DSNT SE T02390222
KUNO 181553Z AUTO 09007KT 10SM BKN014 BKN026 BKN095 24/22 A3007 RMK AO2 LTG DSNT SE RAB03E47 SLP167 P0007 T02390222
KUNO 181538Z AUTO 07006KT 8SM -RA BKN014 BKN019 OVC025 23/22 A3007 RMK AO2 LTG DSNT SE RAB03 P0007 T02330217
KUNO 181519Z AUTO 06004KT 3SM RA BR SCT020 BKN027 OVC041 24/22 A3007 RMK AO2 LTG DSNT NE AND SE RAB03 P0006 T02390217
KUNO 181510Z AUTO 09005KT 2 1/2SM RA FEW024 BKN040 OVC070 24/22 A3007 RMK AO2 LTG DSNT NE AND SE RAB03 P0004 T02440217
KUNO 181453Z AUTO 13004KT 10SM FEW019 BKN026 OVC036 24/21 A3007 RMK AO2 SLP168 T02440211 53003
KUNO 181423Z AUTO 13005KT 10SM BKN019 BKN034 OVC041 24/21 A3007 RMK AO2 T02440211
KUNO 181353Z AUTO 11007KT 10SM FEW017 FEW075 24/21 A3007 RMK AO2 SLP167 T02440211
KUNO 181253Z AUTO 12006KT 10SM SCT047 BKN060 BKN085 24/21 A3007 RMK AO2 SLP166 T02390211
KUNO 181153Z AUTO 07005KT 10SM FEW028 BKN085 23/21 A3007 RMK AO2 RAE1059 SLP165 P0000 60002 70002 T02280211 10256 20228 53003 $
KUNO 181053Z AUTO 08004KT 10SM -RA FEW035 OVC110 23/21 A3005 RMK AO2 LTG DSNT S AND SW SLP162 P0002 T02330211 $
KUNO 180953Z AUTO 09004KT 10SM -RA SCT045 SCT080 BKN110 24/21 A3006 RMK AO2 LTG DSNT W RAB41 SLP163 P0000 T02390211 $
KUNO 180853Z AUTO 06004KT 10SM FEW041 OVC100 24/21 A3006 RMK AO2 SLP161 T02440211 55003 $
KUNO 180753Z AUTO 00000KT 10SM BKN110 25/21 A3005 RMK AO2 SLP161 T02500206 $
KUNO 180653Z AUTO 09003KT 10SM FEW080 26/22 A3006 RMK AO2 SLP163 T02560217 $
KUNO 180553Z AUTO 06004KT 10SM BKN042 26/23 A3006 RMK AO2 SLP164 T02560228 10289 20250 403330217 55000 $
KUNO 180453Z AUTO 09003KT 10SM BKN039 26/22 A3006 RMK AO2 SLP161 T02610222 $
KUNO 180353Z AUTO 00000KT 10SM SCT039 27/23 A3007 RMK AO2 SLP166 T02670228 $
KUNO 180253Z AUTO 00000KT 10SM CLR 28/22 A3007 RMK AO2 SLP164 T02780222 53013 $
KUNO 180153Z AUTO 00000KT 10SM CLR 27/23 A3005 RMK AO2 SLP161 T02720233 $
KUNO 180053Z AUTO 07003KT 10SM CLR 28/23 A3004 RMK AO2 SLP156 T02830228 $
KUNO 172353Z AUTO 07004KT 10SM CLR 29/22 A3003 RMK AO2 SLP152 T02890222 10333 20289 56005 $
KUNO 172253Z AUTO 06003KT 10SM CLR 30/22 A3003 RMK AO2 SLP153 T03000222 $
KUNO 172153Z AUTO 36004KT 10SM CLR 31/22 A3003 RMK AO2 SLP155 T03060222 $
KUNO 172053Z AUTO 36004KT 10SM CLR 32/22 A3004 RMK AO2 SLP158 T03170217 $
KUNO 171953Z AUTO 04006KT 10SM FEW041 32/22 A3006 RMK AO2 SLP163 T03170222 $
KUNO 171753Z AUTO VRB05KT 10SM FEW034 SCT060 31/23 A3008 RMK AO2 SLP169 T03110228 10317 20228 58005
KUNO 171653Z AUTO 05003KT 10SM FEW030 31/23 A3009 RMK AO2 SLP173 T03110233